Time;durP1;ratioP1;P1;durP2;ratioP2;P2;SDS_P1;SDS_P2;PMS_P1;PMS_P2;Temp;Humidity;BMP_temperature;BMP_pressure;BME280_temperature;BME280_humidity;BME280_pressure;Samples;Min_cycle;Max_cycle;Signal;HPM_P1;HPM_P2
2023/11/10 00:02:21;;;;;;;;;;;;;;;;;;5074059;28;4709;-60
2023/11/10 00:04:49;;;;;;;;;;;;;;;;;;5038455;28;5194;-60
2023/11/10 00:07:14;;;;;;;;;;;;;;;;;;5075110;28;4566;-59
2023/11/10 00:09:40;;;;;;;;;;;;;;;;;;5101228;28;4672;-59
2023/11/10 00:15:09;;;;;;;;;;;;;;;;;;5073414;28;4751;-59
2023/11/10 00:17:35;;;;;;;;;;;;;;;;;;5055487;28;1985;-60
2023/11/10 00:20:01;;;;;;;;;;;;;;;;;;5074217;28;4992;-59
2023/11/10 00:22:26;;;;;;;;;;;;;;;;;;5074904;28;5058;-60
2023/11/10 00:25:02;;;;;;;;;;;;;;;;;;5063803;28;4512;-58
2023/11/10 00:27:27;;;;;;;;;;;;;;;;;;5071401;28;4431;-59
2023/11/10 00:29:53;;;;;;;;;;;;;;;;;;5074900;28;4754;-59
2023/11/10 00:32:18;;;;;;;;;;;;;;;;;;5055410;28;5212;-59
2023/11/10 00:34:43;;;;;;;;;;;;;;;;;;5070893;28;5026;-59
2023/11/10 00:37:08;;;;;;;;;;;;;;;;;;5087105;28;5059;-59
2023/11/10 00:39:34;;;;;;;;;;;;;;;;;;5080015;28;4559;-59
2023/11/10 00:41:59;;;;;;;;;;;;;;;;;;5084946;28;5046;-59
2023/11/10 00:44:25;;;;;;;;;;;;;;;;;;5053605;28;1515;-59
2023/11/10 00:46:51;;;;;;;;;;;;;;;;;;5081426;28;4401;-59
2023/11/10 00:49:16;;;;;;;;;;;;;;;;;;5042438;28;4521;-59
2023/11/10 00:52:01;;;;;;;;;;;;;;;;;;5076402;28;5078;-59
2023/11/10 00:54:26;;;;;;;;;;;;;;;;;;5068375;28;4517;-59
2023/11/10 00:56:51;;;;;;;;;;;;;;;;;;5076730;28;1067;-59
2023/11/10 00:59:16;;;;;;;;;;;;;;;;;;5066488;28;5007;-59
2023/11/10 01:01:42;;;;;;;;;;;;;;;;;;5084681;28;4999;-59
2023/11/10 01:04:07;;;;;;;;;;;;;;;;;;5052981;28;4595;-59
2023/11/10 01:15:20;;;;;;;;;;;;;;;;;;5075738;28;5037;-59
2023/11/10 01:17:45;;;;;;;;;;;;;;;;;;5054927;28;1226;-60
2023/11/10 01:20:11;;;;;;;;;;;;;;;;;;5067451;28;4974;-59
2023/11/10 01:22:37;;;;;;;;;;;;;;;;;;5065773;28;5073;-60
2023/11/10 01:25:07;;;;;;;;;;;;;;;;;;5073861;28;5064;-59
2023/11/10 01:27:32;;;;;;;;;;;;;;;;;;5079127;28;4988;-59
2023/11/10 01:30:14;;;;;;;;;;;;;;;;;;5070448;28;4813;-58
2023/11/10 01:35:43;;;;;;;;;;;;;;;;;;5071667;28;4607;-58
2023/11/10 01:38:09;;;;;;;;;;;;;;;;;;5074179;28;4785;-60
2023/11/10 01:40:45;;;;;;;;;;;;;;;;;;5055007;28;4727;-59
2023/11/10 01:46:31;;;;;;;;;;;;;;;;;;5075802;28;4956;-58
2023/11/10 01:48:58;;;;;;;;;;;;;;;;;;5072954;28;5115;-60
2023/11/10 01:51:23;;;;;;;;;;;;;;;;;;5056971;28;4941;-59
2023/11/10 01:53:49;;;;;;;;;;;;;;;;;;5048986;28;1296;-60
2023/11/10 01:59:36;;;;;;;;;;;;;;;;;;5049849;28;4995;-60
2023/11/10 02:02:05;;;;;;;;;;;;;;;;;;5051417;28;5055;-60
2023/11/10 02:04:33;;;;;;;;;;;;;;;;;;5049826;28;5051;-59
2023/11/10 02:06:59;;;;;;;;;;;;;;;;;;5060706;28;4803;-59
2023/11/10 02:09:43;;;;;;;;;;;;;;;;;;5057377;28;5283;-59
2023/11/10 02:12:08;;;;;;;;;;;;;;;;;;5066704;28;4451;-59
2023/11/10 02:14:35;;;;;;;;;;;;;;;;;;5051438;28;1258;-59
2023/11/10 02:17:00;;;;;;;;;;;;;;;;;;5046938;28;5133;-59
2023/11/10 02:19:26;;;;;;;;;;;;;;;;;;5049583;28;5158;-59
2023/11/10 02:21:52;;;;;;;;;;;;;;;;;;5049602;28;4869;-59
2023/11/10 02:24:17;;;;;;;;;;;;;;;;;;5072679;28;5146;-59
2023/11/10 02:26:44;;;;;;;;;;;;;;;;;;5053761;28;1519;-59
2023/11/10 02:29:10;;;;;;;;;;;;;;;;;;5066176;28;5063;-59
2023/11/10 02:31:36;;;;;;;;;;;;;;;;;;5061099;28;5084;-59
2023/11/10 02:34:01;;;;;;;;;;;;;;;;;;5068822;28;4497;-59
2023/11/10 02:36:29;;;;;;;;;;;;;;;;;;5055621;28;5187;-59
2023/11/10 02:38:54;;;;;;;;;;;;;;;;;;5058364;28;1235;-59
2023/11/10 02:41:20;;;;;;;;;;;;;;;;;;5071565;28;5023;-59
2023/11/10 02:43:45;;;;;;;;;;;;;;;;;;5060152;28;5021;-59
2023/11/10 02:46:11;;;;;;;;;;;;;;;;;;5055913;28;4989;-59
2023/11/10 02:48:37;;;;;;;;;;;;;;;;;;5060046;28;5049;-59
2023/11/10 02:51:03;;;;;;;;;;;;;;;;;;5072048;28;5001;-59
2023/11/10 02:53:35;;;;;;;;;;;;;;;;;;5061852;28;1207;-59
2023/11/10 02:56:01;;;;;;;;;;;;;;;;;;5068062;28;4406;-59
2023/11/10 02:58:26;;;;;;;;;;;;;;;;;;5083313;28;4657;-59
2023/11/10 03:00:55;;;;;;;;;;;;;;;;;;5092462;28;5100;-59
2023/11/10 03:03:45;;;;;;;;;;;;;;;;;;5073529;28;5017;-59
2023/11/10 03:06:16;;;;;;;;;;;;;;;;;;5083265;28;5063;-59
2023/11/10 03:08:41;;;;;;;;;;;;;;;;;;5070596;28;1973;-59
2023/11/10 03:11:06;;;;;;;;;;;;;;;;;;5065727;28;4954;-59
2023/11/10 03:13:32;;;;;;;;;;;;;;;;;;5066266;28;4631;-59
2023/11/10 03:15:59;;;;;;;;;;;;;;;;;;5066111;28;5069;-58
2023/11/10 03:18:25;;;;;;;;;;;;;;;;;;5064521;28;5961;-59
2023/11/10 03:20:50;;;;;;;;;;;;;;;;;;5067645;28;1072;-59
2023/11/10 03:23:15;;;;;;;;;;;;;;;;;;5066742;28;5046;-59
2023/11/10 03:25:41;;;;;;;;;;;;;;;;;;5068518;28;5055;-59
2023/11/10 03:28:06;;;;;;;;;;;;;;;;;;5075894;28;5043;-59
2023/11/10 03:30:31;;;;;;;;;;;;;;;;;;5070354;28;5029;-59
2023/11/10 03:32:56;;;;;;;;;;;;;;;;;;5053123;28;1641;-59
2023/11/10 03:35:22;;;;;;;;;;;;;;;;;;5064307;28;5175;-59
2023/11/10 03:37:48;;;;;;;;;;;;;;;;;;5068511;28;4948;-59
2023/11/10 03:40:14;;;;;;;;;;;;;;;;;;5069291;28;4430;-59
2023/11/10 03:43:02;;;;;;;;;;;;;;;;;;5071559;28;5129;-59
2023/11/10 03:45:27;;;;;;;;;;;;;;;;;;5071155;28;5046;-59
2023/11/10 03:47:53;;;;;;;;;;;;;;;;;;5083393;28;1569;-59
2023/11/10 03:50:18;;;;;;;;;;;;;;;;;;5066365;28;4523;-59
2023/11/10 03:52:50;;;;;;;;;;;;;;;;;;5077667;28;5141;-58
2023/11/10 03:55:15;;;;;;;;;;;;;;;;;;5056702;28;4514;-59
2023/11/10 03:57:41;;;;;;;;;;;;;;;;;;5091723;28;5033;-59
2023/11/10 04:00:19;;;;;;;;;;;;;;;;;;5083224;28;4896;-59
2023/11/10 04:02:54;;;;;;;;;;;;;;;;;;5081106;28;1096;-59
2023/11/10 04:05:24;;;;;;;;;;;;;;;;;;5063850;28;4943;-59
2023/11/10 04:07:54;;;;;;;;;;;;;;;;;;5080153;28;4938;-59
2023/11/10 04:10:26;;;;;;;;;;;;;;;;;;5072911;28;4494;-59
2023/11/10 04:12:52;;;;;;;;;;;;;;;;;;5076010;28;4450;-59
2023/11/10 04:21:26;;;;;;;;;;;;;;;;;;5084975;28;5235;-60
2023/11/10 04:24:12;;;;;;;;;;;;;;;;;;5076141;28;1322;-59
2023/11/10 04:26:37;;;;;;;;;;;;;;;;;;5053828;28;4976;-59
2023/11/10 04:29:09;;;;;;;;;;;;;;;;;;5071673;28;5065;-59
2023/11/10 04:34:36;;;;;;;;;;;;;;;;;;5076761;28;5342;-59
2023/11/10 04:37:05;;;;;;;;;;;;;;;;;;5076095;28;4991;-59
2023/11/10 04:39:31;;;;;;;;;;;;;;;;;;5057949;28;5019;-59
2023/11/10 04:41:56;;;;;;;;;;;;;;;;;;5076626;28;1169;-59
2023/11/10 04:44:23;;;;;;;;;;;;;;;;;;5082858;28;4572;-59
2023/11/10 04:46:48;;;;;;;;;;;;;;;;;;5074647;28;5145;-59
2023/11/10 04:49:14;;;;;;;;;;;;;;;;;;5076197;28;5835;-58
2023/11/10 04:51:45;;;;;;;;;;;;;;;;;;5081767;28;4494;-59
2023/11/10 04:57:13;;;;;;;;;;;;;;;;;;5072195;28;5215;-59
2023/11/10 04:59:39;;;;;;;;;;;;;;;;;;5076170;28;1046;-58
2023/11/10 05:02:08;;;;;;;;;;;;;;;;;;5057875;28;5060;-58
2023/11/10 05:04:35;;;;;;;;;;;;;;;;;;5058096;28;5243;-58
2023/11/10 05:10:05;;;;;;;;;;;;;;;;;;5075559;28;5127;-59
2023/11/10 05:22:09;;;;;;;;;;;;;;;;;;5095641;28;5122;-59
2023/11/10 05:25:10;;;;;;;;;;;;;;;;;;5095931;28;4622;-59
2023/11/10 05:30:38;;;;;;;;;;;;;;;;;;5075909;28;4935;-58
2023/11/10 05:33:04;;;;;;;;;;;;;;;;;;5066734;28;5350;-59
2023/11/10 05:35:29;;;;;;;;;;;;;;;;;;5052534;28;2113;-58
2023/11/10 05:37:55;;;;;;;;;;;;;;;;;;5083340;28;4914;-58
2023/11/10 05:40:21;;;;;;;;;;;;;;;;;;5063199;28;5033;-58
2023/11/10 05:42:46;;;;;;;;;;;;;;;;;;5087505;28;5135;-57
2023/11/10 05:45:12;;;;;;;;;;;;;;;;;;5091330;28;4942;-58
2023/11/10 05:47:37;;;;;;;;;;;;;;;;;;5072375;28;1735;-58
2023/11/10 05:50:26;;;;;;;;;;;;;;;;;;5072798;28;4505;-58
2023/11/10 05:52:51;;;;;;;;;;;;;;;;;;5072490;28;4898;-58
2023/11/10 05:58:19;;;;;;;;;;;;;;;;;;5074878;28;4450;-57
2023/11/10 06:00:45;;;;;;;;;;;;;;;;;;5072157;28;4929;-57
2023/11/10 06:03:10;;;;;;;;;;;;;;;;;;5072583;28;5109;-58
2023/11/10 06:05:35;;;;;;;;;;;;;;;;;;5072960;28;1282;-58
2023/11/10 06:08:36;;;;;;;;;;;;;;;;;;5056907;28;4651;-57
2023/11/10 06:17:19;;;;;;;;;;;;;;;;;;5072743;28;4411;-57
2023/11/10 06:19:45;;;;;;;;;;;;;;;;;;5074446;28;4888;-58
2023/11/10 06:22:13;;;;;;;;;;;;;;;;;;5061520;28;4529;-58
2023/11/10 06:24:39;;;;;;;;;;;;;;;;;;5068615;28;5143;-58
2023/11/10 06:39:33;;;;;;;;;;;;;;;;;;5066900;28;5199;-60
2023/11/10 06:41:59;;;;;;;;;;;;;;;;;;5072279;28;2152;-59
2023/11/10 06:44:24;;;;;;;;;;;;;;;;;;5074495;28;5473;-60
2023/11/10 06:46:50;;;;;;;;;;;;;;;;;;5072907;28;4588;-60
2023/11/10 06:52:20;;;;;;;;;;;;;;;;;;5074266;28;5027;-58
2023/11/10 06:54:45;;;;;;;;;;;;;;;;;;5070329;28;5174;-59
2023/11/10 06:57:11;;;;;;;;;;;;;;;;;;5051975;28;4682;-59
2023/11/10 06:59:39;;;;;;;;;;;;;;;;;;5072027;28;1345;-59
2023/11/10 07:02:23;;;;;;;;;;;;;;;;;;5072579;28;4803;-58
2023/11/10 07:07:51;;;;;;;;;;;;;;;;;;5082670;28;5049;-59
2023/11/10 07:10:20;;;;;;;;;;;;;;;;;;5081953;28;5050;-59
2023/11/10 07:12:45;;;;;;;;;;;;;;;;;;5069543;28;4644;-58
2023/11/10 07:15:11;;;;;;;;;;;;;;;;;;5052876;28;4643;-58
2023/11/10 07:27:21;;;;;;;;;;;;;;;;;;5071385;28;4588;-59
2023/11/10 07:30:02;;;;;;;;;;;;;;;;;;5073769;28;4842;-59
2023/11/10 07:32:30;;;;;;;;;;;;;;;;;;5072171;28;4874;-59
2023/11/10 07:34:56;;;;;;;;;;;;;;;;;;5092122;28;4999;-59
2023/11/10 07:37:21;;;;;;;;;;;;;;;;;;5095421;28;5040;-59
2023/11/10 07:39:46;;;;;;;;;;;;;;;;;;5077320;28;5099;-58
2023/11/10 07:42:13;;;;;;;;;;;;;;;;;;5089779;28;4458;-58
2023/11/10 07:44:39;;;;;;;;;;;;;;;;;;5099338;28;1199;-58
2023/11/10 07:47:05;;;;;;;;;;;;;;;;;;5096786;28;5017;-57
2023/11/10 07:49:30;;;;;;;;;;;;;;;;;;5079164;28;4822;-59
2023/11/10 07:55:05;;;;;;;;;;;;;;;;;;5081801;28;5132;-57
2023/11/10 07:57:31;;;;;;;;;;;;;;;;;;5075811;28;5006;-59
2023/11/10 07:59:57;;;;;;;;;;;;;;;;;;5075986;28;954;-59
2023/11/10 08:02:23;;;;;;;;;;;;;;;;;;5074791;28;4879;-57
2023/11/10 08:08:16;;;;;;;;;;;;;;;;;;5074743;28;4635;-58
2023/11/10 08:19:56;;;;;;;;;;;;;;;;;;5095659;28;4471;-57
2023/11/10 08:22:22;;;;;;;;;;;;;;;;;;5070467;28;5119;-57
2023/11/10 08:24:48;;;;;;;;;;;;;;;;;;5092413;28;4664;-57
2023/11/10 08:27:13;;;;;;;;;;;;;;;;;;5082496;28;5167;-57
2023/11/10 08:32:42;;;;;;;;;;;;;;;;;;5075007;28;4597;-58
2023/11/10 08:35:08;;;;;;;;;;;;;;;;;;5074390;28;4952;-58
2023/11/10 08:37:34;;;;;;;;;;;;;;;;;;5076150;28;4445;-58
2023/11/10 08:39:59;;;;;;;;;;;;;;;;;;5091864;28;5020;-58
2023/11/10 08:42:34;;;;;;;;;;;;;;;;;;5074959;28;4998;-58
2023/11/10 08:44:59;;;;;;;;;;;;;;;;;;5088508;28;4686;-57
2023/11/10 08:47:25;;;;;;;;;;;;;;;;;;5082528;28;1124;-60
2023/11/10 08:50:15;;;;;;;;;;;;;;;;;;5072593;28;6103;-59
2023/11/10 08:52:41;;;;;;;;;;;;;;;;;;5051418;28;5117;-62
2023/11/10 08:55:16;;;;;;;;;;;;;;;;;;5049224;28;4611;-59
2023/11/10 08:57:41;;;;;;;;;;;;;;;;;;5050638;28;5014;-59
2023/11/10 09:00:07;;;;;;;;;;;;;;;;;;5049409;28;4927;-59
2023/11/10 09:02:32;;;;;;;;;;;;;;;;;;5057244;28;1111;-59
2023/11/10 09:04:57;;;;;;;;;;;;;;;;;;5049374;28;4817;-59
2023/11/10 09:07:23;;;;;;;;;;;;;;;;;;5069231;28;4463;-59
2023/11/10 09:09:49;;;;;;;;;;;;;;;;;;5051197;28;5142;-59
2023/11/10 09:12:14;;;;;;;;;;;;;;;;;;5065544;28;5059;-59
2023/11/10 09:14:39;;;;;;;;;;;;;;;;;;5055556;28;972;-59
2023/11/10 09:17:07;;;;;;;;;;;;;;;;;;5066430;28;4628;-59
2023/11/10 09:19:33;;;;;;;;;;;;;;;;;;5053080;28;1408;-61
2023/11/10 09:21:58;;;;;;;;;;;;;;;;;;5053082;28;5064;-59
2023/11/10 09:24:24;;;;;;;;;;;;;;;;;;5052049;28;5122;-60
2023/11/10 09:26:49;;;;;;;;;;;;;;;;;;5051878;28;2559;-59
2023/11/10 09:29:15;;;;;;;;;;;;;;;;;;5052459;28;5045;-59
2023/11/10 09:31:40;;;;;;;;;;;;;;;;;;5055994;28;5032;-60
2023/11/10 09:37:23;;;;;;;;;;;;;;;;;;5064842;28;4773;-58
2023/11/10 09:43:17;;;;;;;;;;;;;;;;;;5052473;28;5087;-58
2023/11/10 09:45:50;;;;;;;;;;;;;;;;;;5062476;28;5024;-59
2023/11/10 09:48:15;;;;;;;;;;;;;;;;;;5054962;28;4676;-58
2023/11/10 09:54:03;;;;;;;;;;;;;;;;;;5063911;28;4575;-58
2023/11/10 09:56:29;;;;;;;;;;;;;;;;;;5070133;28;4592;-59
2023/11/10 09:58:55;;;;;;;;;;;;;;;;;;5080484;28;4920;-59
2023/11/10 10:01:20;;;;;;;;;;;;;;;;;;5072224;28;5054;-59
2023/11/10 10:03:45;;;;;;;;;;;;;;;;;;5090969;28;5205;-58
2023/11/10 10:06:11;;;;;;;;;;;;;;;;;;5092982;28;5140;-58
2023/11/10 10:08:37;;;;;;;;;;;;;;;;;;5091726;28;1902;-58
2023/11/10 10:11:02;;;;;;;;;;;;;;;;;;5054506;28;4928;-59
2023/11/10 10:31:43;;;;;;;;;;;;;;;;;;5072028;28;4423;-58
2023/11/10 10:34:30;;;;;;;;;;;;;;;;;;5074346;28;5174;-58
2023/11/10 10:40:14;;;;;;;;;;;;;;;;;;5072075;28;5667;-60
2023/11/10 10:42:41;;;;;;;;;;;;;;;;;;5072939;28;5114;-59
2023/11/10 10:45:06;;;;;;;;;;;;;;;;;;5079104;28;4850;-60
2023/11/10 10:47:38;;;;;;;;;;;;;;;;;;5075928;28;1344;-59
2023/11/10 10:50:07;;;;;;;;;;;;;;;;;;5078881;28;4606;-61
2023/11/10 10:52:33;;;;;;;;;;;;;;;;;;5060660;28;5426;-61
2023/11/10 10:54:59;;;;;;;;;;;;;;;;;;5077619;28;4704;-60
2023/11/10 10:57:38;;;;;;;;;;;;;;;;;;5052720;28;5152;-61
2023/11/10 11:00:23;;;;;;;;;;;;;;;;;;5076241;28;4735;-59
2023/11/10 11:02:53;;;;;;;;;;;;;;;;;;5070906;28;1103;-59
2023/11/10 11:05:37;;;;;;;;;;;;;;;;;;5056689;28;4621;-59
2023/11/10 11:08:09;;;;;;;;;;;;;;;;;;5050682;28;5222;-58
2023/11/10 11:10:44;;;;;;;;;;;;;;;;;;5051716;28;5287;-61
2023/11/10 11:13:18;;;;;;;;;;;;;;;;;;5072104;28;4992;-60
2023/11/10 11:15:59;;;;;;;;;;;;;;;;;;5070295;28;4432;-60
2023/11/10 11:18:30;;;;;;;;;;;;;;;;;;5071092;28;4826;-59
2023/11/10 11:20:55;;;;;;;;;;;;;;;;;;5070955;28;1001;-60
2023/11/10 11:23:22;;;;;;;;;;;;;;;;;;5050541;28;4987;-61
2023/11/10 11:25:58;;;;;;;;;;;;;;;;;;5068050;28;4408;-60
2023/11/10 11:28:31;;;;;;;;;;;;;;;;;;5048841;28;5052;-59
2023/11/10 11:31:10;;;;;;;;;;;;;;;;;;5073794;28;5112;-61
2023/11/10 11:33:48;;;;;;;;;;;;;;;;;;5077761;28;4454;-59
2023/11/10 11:36:14;;;;;;;;;;;;;;;;;;5058644;28;5075;-59
2023/11/10 11:38:39;;;;;;;;;;;;;;;;;;5070181;28;1199;-59
2023/11/10 11:41:14;;;;;;;;;;;;;;;;;;5069445;28;4431;-59
2023/11/10 11:43:50;;;;;;;;;;;;;;;;;;5074067;28;4467;-60
2023/11/10 11:46:15;;;;;;;;;;;;;;;;;;5079816;28;5080;-60
2023/11/10 11:48:40;;;;;;;;;;;;;;;;;;5067986;28;5083;-58
2023/11/10 11:51:23;;;;;;;;;;;;;;;;;;5070007;28;5003;-60
2023/11/10 11:53:48;;;;;;;;;;;;;;;;;;5082008;28;1192;-59
2023/11/10 11:56:14;;;;;;;;;;;;;;;;;;5079970;28;4537;-57
2023/11/10 11:58:39;;;;;;;;;;;;;;;;;;5065483;28;5084;-56
2023/11/10 12:01:06;;;;;;;;;;;;;;;;;;5047609;28;5222;-54
2023/11/10 12:03:31;;;;;;;;;;;;;;;;;;5050066;28;5039;-53
2023/11/10 12:06:06;;;;;;;;;;;;;;;;;;5073982;28;1891;-52
2023/11/10 12:08:31;;;;;;;;;;;;;;;;;;5073415;28;4909;-55
2023/11/10 12:11:03;;;;;;;;;;;;;;;;;;5075161;28;4812;-54
2023/11/10 12:13:28;;;;;;;;;;;;;;;;;;5083522;28;4591;-56
2023/11/10 12:16:08;;;;;;;;;;;;;;;;;;5092382;28;5093;-55
2023/11/10 12:18:35;;;;;;;;;;;;;;;;;;5044667;28;5142;-54
2023/11/10 12:21:01;;;;;;;;;;;;;;;;;;5082170;28;5493;-58
2023/11/10 12:23:26;;;;;;;;;;;;;;;;;;5059380;28;1098;-54
2023/11/10 12:26:12;;;;;;;;;;;;;;;;;;5084682;28;4519;-54
2023/11/10 12:28:38;;;;;;;;;;;;;;;;;;5077673;28;4460;-53
2023/11/10 12:31:04;;;;;;;;;;;;;;;;;;5082841;28;4983;-54
2023/11/10 12:33:32;;;;;;;;;;;;;;;;;;5079648;28;5091;-54
2023/11/10 12:35:59;;;;;;;;;;;;;;;;;;5078348;28;1111;-53
2023/11/10 12:38:24;;;;;;;;;;;;;;;;;;5074357;28;5056;-54
2023/11/10 12:40:50;;;;;;;;;;;;;;;;;;5062001;28;5294;-53
2023/11/10 12:43:15;;;;;;;;;;;;;;;;;;5080148;28;5167;-53
2023/11/10 12:45:40;;;;;;;;;;;;;;;;;;5088111;28;5068;-54
2023/11/10 12:48:26;;;;;;;;;;;;;;;;;;5074799;28;4902;-55
2023/11/10 12:51:29;;;;;;;;;;;;;;;;;;5084368;28;1342;-61
2023/11/10 12:56:59;;;;;;;;;;;;;;;;;;5074538;28;1265;-61
2023/11/10 12:59:26;;;;;;;;;;;;;;;;;;5061793;28;5466;-65
2023/11/10 13:01:52;;;;;;;;;;;;;;;;;;5069746;28;4640;-70
2023/11/10 13:04:18;;;;;;;;;;;;;;;;;;5069503;28;5071;-64
2023/11/10 13:06:43;;;;;;;;;;;;;;;;;;5068575;28;5211;-62
2023/11/10 13:09:09;;;;;;;;;;;;;;;;;;5089108;28;5122;-64
2023/11/10 13:11:35;;;;;;;;;;;;;;;;;;5071726;28;1283;-63
2023/11/10 13:16:55;;;;;;;;;;;;;;;;;;5067728;28;4465;-62
2023/11/10 13:19:20;;;;;;;;;;;;;;;;;;5067730;28;5055;-65
2023/11/10 13:21:46;;;;;;;;;;;;;;;;;;5075583;28;4927;-64
2023/11/10 13:24:11;;;;;;;;;;;;;;;;;;5084100;28;4950;-62
2023/11/10 13:26:36;;;;;;;;;;;;;;;;;;5072351;28;1117;-62
2023/11/10 13:29:02;;;;;;;;;;;;;;;;;;5052040;28;4561;-64
2023/11/10 13:31:30;;;;;;;;;;;;;;;;;;5051343;28;5602;-63
2023/11/10 13:33:55;;;;;;;;;;;;;;;;;;5070911;28;4668;-62
2023/11/10 13:36:21;;;;;;;;;;;;;;;;;;5085078;28;4774;-59
2023/11/10 13:38:47;;;;;;;;;;;;;;;;;;5078816;28;1715;-60
2023/11/10 13:41:12;;;;;;;;;;;;;;;;;;5061708;28;5067;-60
2023/11/10 13:43:37;;;;;;;;;;;;;;;;;;5067478;28;4489;-60
2023/11/10 13:46:03;;;;;;;;;;;;;;;;;;5068372;28;5287;-56
2023/11/10 13:48:30;;;;;;;;;;;;;;;;;;5067825;28;5056;-60
2023/11/10 13:50:55;;;;;;;;;;;;;;;;;;5079197;28;1780;-59
2023/11/10 13:53:21;;;;;;;;;;;;;;;;;;5082292;28;5201;-59
2023/11/10 13:55:47;;;;;;;;;;;;;;;;;;5087017;28;5046;-59
2023/11/10 13:58:13;;;;;;;;;;;;;;;;;;5069178;28;5419;-59
2023/11/10 14:00:39;;;;;;;;;;;;;;;;;;5069442;28;5027;-59
2023/11/10 14:03:18;;;;;;;;;;;;;;;;;;5083607;28;4690;-53
2023/11/10 14:05:47;;;;;;;;;;;;;;;;;;5056343;28;1916;-53
2023/11/10 14:11:25;;;;;;;;;;;;;;;;;;5071894;28;5039;-53
2023/11/10 14:13:51;;;;;;;;;;;;;;;;;;5073996;28;4976;-54
2023/11/10 14:16:16;;;;;;;;;;;;;;;;;;5073416;28;5062;-54
2023/11/10 14:18:42;;;;;;;;;;;;;;;;;;5074946;28;4729;-55
2023/11/10 14:21:30;;;;;;;;;;;;;;;;;;5094463;28;4849;-55
2023/11/10 14:23:55;;;;;;;;;;;;;;;;;;5093788;28;2520;-54
2023/11/10 14:29:24;;;;;;;;;;;;;;;;;;5074649;28;4586;-53
2023/11/10 14:31:49;;;;;;;;;;;;;;;;;;5089008;28;4614;-53
2023/11/10 14:34:15;;;;;;;;;;;;;;;;;;5071750;28;4706;-53
2023/11/10 14:36:40;;;;;;;;;;;;;;;;;;5071451;28;5029;-53
2023/11/10 14:39:06;;;;;;;;;;;;;;;;;;5072371;28;5588;-53
2023/11/10 14:41:33;;;;;;;;;;;;;;;;;;5078226;28;1284;-53
2023/11/10 14:44:00;;;;;;;;;;;;;;;;;;5091134;28;4598;-53
2023/11/10 14:49:43;;;;;;;;;;;;;;;;;;5074087;28;4603;-53
2023/11/10 14:55:11;;;;;;;;;;;;;;;;;;5070852;28;4885;-55
2023/11/10 14:57:36;;;;;;;;;;;;;;;;;;5053927;28;5158;-53
2023/11/10 15:00:02;;;;;;;;;;;;;;;;;;5053632;28;4395;-52
2023/11/10 15:05:33;;;;;;;;;;;;;;;;;;5054949;28;4749;-53
2023/11/10 15:07:59;;;;;;;;;;;;;;;;;;5053471;28;4597;-54
2023/11/10 15:10:27;;;;;;;;;;;;;;;;;;5054086;28;5588;-55
2023/11/10 15:12:52;;;;;;;;;;;;;;;;;;5053640;28;4388;-54
2023/11/10 15:18:36;;;;;;;;;;;;;;;;;;5053573;28;5002;-55
2023/11/10 15:21:01;;;;;;;;;;;;;;;;;;5052302;28;4680;-54
2023/11/10 15:23:26;;;;;;;;;;;;;;;;;;5052582;28;1638;-54
2023/11/10 15:25:52;;;;;;;;;;;;;;;;;;5053354;28;4975;-55
2023/11/10 15:28:17;;;;;;;;;;;;;;;;;;5052891;28;5002;-54
2023/11/10 15:30:45;;;;;;;;;;;;;;;;;;5053453;28;5104;-54
2023/11/10 15:33:11;;;;;;;;;;;;;;;;;;5053377;28;4407;-53
2023/11/10 15:35:39;;;;;;;;;;;;;;;;;;5051593;28;1185;-55
2023/11/10 15:41:08;;;;;;;;;;;;;;;;;;5053440;28;5944;-55
2023/11/10 15:43:33;;;;;;;;;;;;;;;;;;5056850;28;4941;-54
2023/11/10 15:46:00;;;;;;;;;;;;;;;;;;5057174;28;5190;-53
2023/11/10 15:48:26;;;;;;;;;;;;;;;;;;5056990;28;4635;-53
2023/11/10 15:56:56;;;;;;;;;;;;;;;;;;5056795;28;1339;-53
2023/11/10 15:59:22;;;;;;;;;;;;;;;;;;5055445;28;5033;-54
2023/11/10 16:04:50;;;;;;;;;;;;;;;;;;5076839;28;5018;-50
2023/11/10 16:07:16;;;;;;;;;;;;;;;;;;5056622;28;5036;-49
2023/11/10 16:09:44;;;;;;;;;;;;;;;;;;5076343;28;4474;-48
2023/11/10 16:12:11;;;;;;;;;;;;;;;;;;5076824;28;4998;-53
2023/11/10 16:17:40;;;;;;;;;;;;;;;;;;5077338;28;4595;-50
2023/11/10 16:23:08;;;;;;;;;;;;;;;;;;5077384;28;4422;-49
2023/11/10 16:28:37;;;;;;;;;;;;;;;;;;5076707;28;4970;-49
2023/11/10 16:31:09;;;;;;;;;;;;;;;;;;5076139;28;4572;-48
2023/11/10 16:33:34;;;;;;;;;;;;;;;;;;5076309;28;5116;-52
2023/11/10 16:39:02;;;;;;;;;;;;;;;;;;5070497;28;5003;-50
2023/11/10 16:41:27;;;;;;;;;;;;;;;;;;5059894;28;3320;-51
2023/11/10 16:43:53;;;;;;;;;;;;;;;;;;5051705;28;4998;-49
2023/11/10 16:46:19;;;;;;;;;;;;;;;;;;5032459;28;5168;-50
2023/11/10 16:48:44;;;;;;;;;;;;;;;;;;5060169;28;5146;-50
2023/11/10 16:51:10;;;;;;;;;;;;;;;;;;5060341;28;4606;-52
2023/11/10 16:53:35;;;;;;;;;;;;;;;;;;5042622;28;2853;-52
2023/11/10 16:56:08;;;;;;;;;;;;;;;;;;5063568;28;4985;-49
2023/11/10 16:58:33;;;;;;;;;;;;;;;;;;5039920;28;5039;-50
2023/11/10 17:00:58;;;;;;;;;;;;;;;;;;5046562;28;4520;-53
2023/11/10 17:03:24;;;;;;;;;;;;;;;;;;5056672;28;5035;-49
2023/11/10 17:06:12;;;;;;;;;;;;;;;;;;5074853;28;3245;-53
2023/11/10 17:08:37;;;;;;;;;;;;;;;;;;5058811;28;4635;-50
2023/11/10 17:11:03;;;;;;;;;;;;;;;;;;5045485;28;4446;-50
2023/11/10 17:13:30;;;;;;;;;;;;;;;;;;5076877;28;5110;-51
2023/11/10 17:18:43;;;;;;;;;;;;;;;;;;5048064;28;5242;-49
2023/11/10 17:21:09;;;;;;;;;;;;;;;;;;5061869;28;5068;-51
2023/11/10 17:23:34;;;;;;;;;;;;;;;;;;5071141;28;2352;-50
2023/11/10 17:26:26;;;;;;;;;;;;;;;;;;5052144;28;4845;-51
2023/11/10 17:28:52;;;;;;;;;;;;;;;;;;5052317;28;4592;-51
2023/11/10 17:31:31;;;;;;;;;;;;;;;;;;5030925;28;4575;-49
2023/11/10 17:34:05;;;;;;;;;;;;;;;;;;5058479;28;5118;-49
2023/11/10 17:36:31;;;;;;;;;;;;;;;;;;5057939;28;5080;-52
2023/11/10 17:38:56;;;;;;;;;;;;;;;;;;5067371;28;997;-50
2023/11/10 17:41:22;;;;;;;;;;;;;;;;;;5054683;28;5163;-49
2023/11/10 17:43:56;;;;;;;;;;;;;;;;;;5061145;28;4491;-51
2023/11/10 17:46:22;;;;;;;;;;;;;;;;;;5054293;28;4985;-50
2023/11/10 17:48:47;;;;;;;;;;;;;;;;;;5073439;28;4825;-50
2023/11/10 17:51:14;;;;;;;;;;;;;;;;;;5064363;28;5013;-50
2023/11/10 17:53:39;;;;;;;;;;;;;;;;;;5063287;28;1801;-52
2023/11/10 17:56:04;;;;;;;;;;;;;;;;;;5053923;28;4561;-51
2023/11/10 18:01:57;;;;;;;;;;;;;;;;;;5049983;28;5083;-50
2023/11/10 18:04:23;;;;;;;;;;;;;;;;;;5050233;28;4991;-52
2023/11/10 18:06:48;;;;;;;;;;;;;;;;;;5052996;28;4418;-50
2023/11/10 18:09:14;;;;;;;;;;;;;;;;;;5056604;28;4648;-54
2023/11/10 18:14:43;;;;;;;;;;;;;;;;;;5063123;28;4583;-51
2023/11/10 18:17:08;;;;;;;;;;;;;;;;;;5038008;28;5131;-51
2023/11/10 18:19:34;;;;;;;;;;;;;;;;;;5066338;28;5114;-50
2023/11/10 18:22:05;;;;;;;;;;;;;;;;;;5070995;28;4627;-49
2023/11/10 18:24:31;;;;;;;;;;;;;;;;;;5055921;28;4524;-51
2023/11/10 18:26:56;;;;;;;;;;;;;;;;;;5053930;28;1266;-52
2023/11/10 18:29:24;;;;;;;;;;;;;;;;;;5054079;28;5323;-49
2023/11/10 18:31:49;;;;;;;;;;;;;;;;;;5054992;28;5107;-50
2023/11/10 18:34:14;;;;;;;;;;;;;;;;;;5063546;28;4666;-49
2023/11/10 18:36:39;;;;;;;;;;;;;;;;;;5072009;28;4739;-51
2023/11/10 18:39:05;;;;;;;;;;;;;;;;;;5054996;28;4520;-56
2023/11/10 18:44:33;;;;;;;;;;;;;;;;;;5054906;28;4759;-49
2023/11/10 18:50:04;;;;;;;;;;;;;;;;;;5053995;28;4528;-50
2023/11/10 18:52:31;;;;;;;;;;;;;;;;;;5053562;28;4498;-49
2023/11/10 18:54:56;;;;;;;;;;;;;;;;;;5034178;28;5051;-51
2023/11/10 18:57:22;;;;;;;;;;;;;;;;;;5047265;28;4954;-52
2023/11/10 19:02:53;;;;;;;;;;;;;;;;;;5074370;28;4522;-52
2023/11/10 19:08:21;;;;;;;;;;;;;;;;;;5074250;28;4568;-52
2023/11/10 19:10:53;;;;;;;;;;;;;;;;;;5071741;28;5223;-51
2023/11/10 19:13:18;;;;;;;;;;;;;;;;;;5037162;28;4970;-50
2023/11/10 19:15:43;;;;;;;;;;;;;;;;;;5072267;28;5015;-51
2023/11/10 19:24:14;;;;;;;;;;;;;;;;;;5057778;28;5474;-51
2023/11/10 19:26:39;;;;;;;;;;;;;;;;;;5056347;28;2811;-51
2023/11/10 19:29:04;;;;;;;;;;;;;;;;;;5057145;28;4823;-50
2023/11/10 19:31:30;;;;;;;;;;;;;;;;;;5055675;28;4874;-49
2023/11/10 19:36:58;;;;;;;;;;;;;;;;;;5057980;28;4907;-50
2023/11/10 19:39:24;;;;;;;;;;;;;;;;;;5055120;28;5055;-49
2023/11/10 19:41:49;;;;;;;;;;;;;;;;;;5062687;28;3198;-50
2023/11/10 19:44:14;;;;;;;;;;;;;;;;;;5054707;28;4960;-49
2023/11/10 19:46:40;;;;;;;;;;;;;;;;;;5064757;28;4926;-52
2023/11/10 19:52:13;;;;;;;;;;;;;;;;;;5055365;28;4616;-51
2023/11/10 19:54:41;;;;;;;;;;;;;;;;;;5048946;28;5127;-50
2023/11/10 19:57:07;;;;;;;;;;;;;;;;;;5047923;28;4546;-59
2023/11/10 19:59:32;;;;;;;;;;;;;;;;;;5047540;28;2977;-74
2023/11/10 20:01:58;;;;;;;;;;;;;;;;;;5047125;28;5128;-74
2023/11/10 20:04:23;;;;;;;;;;;;;;;;;;5045518;28;4966;-72
2023/11/10 20:06:49;;;;;;;;;;;;;;;;;;5030359;28;4530;-52
2023/11/10 20:09:15;;;;;;;;;;;;;;;;;;5047707;28;4565;-53
2023/11/10 20:11:47;;;;;;;;;;;;;;;;;;5056524;28;3231;-53
2023/11/10 20:14:13;;;;;;;;;;;;;;;;;;5055563;28;4989;-52
2023/11/10 20:16:39;;;;;;;;;;;;;;;;;;5049816;28;4629;-50
2023/11/10 20:25:09;;;;;;;;;;;;;;;;;;5056886;28;5231;-50
2023/11/10 20:27:34;;;;;;;;;;;;;;;;;;5038003;28;4599;-49
2023/11/10 20:30:00;;;;;;;;;;;;;;;;;;5056303;28;5060;-51
2023/11/10 20:32:26;;;;;;;;;;;;;;;;;;5057001;28;972;-51
2023/11/10 20:34:51;;;;;;;;;;;;;;;;;;5054577;28;4913;-50
2023/11/10 20:37:16;;;;;;;;;;;;;;;;;;5075063;28;4851;-53
2023/11/10 20:39:42;;;;;;;;;;;;;;;;;;5076111;28;4464;-52
2023/11/10 20:42:07;;;;;;;;;;;;;;;;;;5076487;28;4954;-52
2023/11/10 20:44:33;;;;;;;;;;;;;;;;;;5064651;28;2391;-50
2023/11/10 20:50:01;;;;;;;;;;;;;;;;;;5056170;28;5161;-52
2023/11/10 20:52:27;;;;;;;;;;;;;;;;;;5054322;28;4404;-53
2023/11/10 20:54:53;;;;;;;;;;;;;;;;;;5056048;28;4401;-51
2023/11/10 20:57:18;;;;;;;;;;;;;;;;;;5056233;28;5065;-51